sensor_id;sensor_type;location;lat;lon;timestamp;temperature;humidity
13600;DHT22;6871;51.34740610;4.31323160;2023-09-12T00:00:09;26.60;88.30
13600;DHT22;6871;51.34740610;4.31323160;2023-09-12T00:02:39;26.60;88.20
13600;DHT22;6871;51.34740610;4.31323160;2023-09-12T00:05:09;26.60;88.20
13600;DHT22;6871;51.34740610;4.31323160;2023-09-12T00:07:40;26.60;88.20
13600;DHT22;6871;51.34740610;4.31323160;2023-09-12T00:10:10;26.60;88.20
13600;DHT22;6871;51.34740610;4.31323160;2023-09-12T00:12:39;26.60;88.10
13600;DHT22;6871;51.34740610;4.31323160;2023-09-12T00:15:09;26.60;88.10
13600;DHT22;6871;51.34740610;4.31323160;2023-09-12T00:17:38;26.60;88.10
13600;DHT22;6871;51.34740610;4.31323160;2023-09-12T00:20:10;26.60;88.10
13600;DHT22;6871;51.34740610;4.31323160;2023-09-12T00:22:39;26.60;88.00
13600;DHT22;6871;51.34740610;4.31323160;2023-09-12T00:25:09;26.60;88.10
13600;DHT22;6871;51.34740610;4.31323160;2023-09-12T00:27:38;26.60;88.00
13600;DHT22;6871;51.34740610;4.31323160;2023-09-12T00:30:08;26.50;88.00
13600;DHT22;6871;51.34740610;4.31323160;2023-09-12T00:32:38;26.50;87.90
13600;DHT22;6871;51.34740610;4.31323160;2023-09-12T00:35:08;26.50;87.90
13600;DHT22;6871;51.34740610;4.31323160;2023-09-12T00:37:37;26.50;87.80
13600;DHT22;6871;51.34740610;4.31323160;2023-09-12T00:40:08;26.50;87.90
13600;DHT22;6871;51.34740610;4.31323160;2023-09-12T00:42:37;26.50;87.90
13600;DHT22;6871;51.34740610;4.31323160;2023-09-12T00:45:07;26.50;87.80
13600;DHT22;6871;51.34740610;4.31323160;2023-09-12T00:47:36;26.50;87.90
13600;DHT22;6871;51.34740610;4.31323160;2023-09-12T00:50:07;26.50;87.80
13600;DHT22;6871;51.34740610;4.31323160;2023-09-12T00:52:39;26.50;87.70
13600;DHT22;6871;51.34740610;4.31323160;2023-09-12T00:55:10;26.50;87.70
13600;DHT22;6871;51.34740610;4.31323160;2023-09-12T00:57:39;26.50;87.70
13600;DHT22;6871;51.34740610;4.31323160;2023-09-12T01:00:12;26.50;87.70
13600;DHT22;6871;51.34740610;4.31323160;2023-09-12T01:02:43;26.50;87.70
13600;DHT22;6871;51.34740610;4.31323160;2023-09-12T01:05:14;26.50;87.70
13600;DHT22;6871;51.34740610;4.31323160;2023-09-12T01:07:44;26.50;87.60
13600;DHT22;6871;51.34740610;4.31323160;2023-09-12T01:10:13;26.50;87.60
13600;DHT22;6871;51.34740610;4.31323160;2023-09-12T01:12:42;26.40;87.50
13600;DHT22;6871;51.34740610;4.31323160;2023-09-12T01:15:12;26.40;87.50
13600;DHT22;6871;51.34740610;4.31323160;2023-09-12T01:17:45;26.50;87.70
13600;DHT22;6871;51.34740610;4.31323160;2023-09-12T01:20:16;26.40;87.50
13600;DHT22;6871;51.34740610;4.31323160;2023-09-12T01:22:58;26.40;87.60
13600;DHT22;6871;51.34740610;4.31323160;2023-09-12T01:28:37;26.40;88.20
13600;DHT22;6871;51.34740610;4.31323160;2023-09-12T01:31:07;26.40;88.40
13600;DHT22;6871;51.34740610;4.31323160;2023-09-12T01:33:36;26.40;87.60
13600;DHT22;6871;51.34740610;4.31323160;2023-09-12T01:36:08;26.40;87.70
13600;DHT22;6871;51.34740610;4.31323160;2023-09-12T01:38:36;26.40;87.60
13600;DHT22;6871;51.34740610;4.31323160;2023-09-12T01:41:06;26.40;87.70
13600;DHT22;6871;51.34740610;4.31323160;2023-09-12T01:43:37;26.40;87.60
13600;DHT22;6871;51.34740610;4.31323160;2023-09-12T01:46:07;26.40;87.70
13600;DHT22;6871;51.34740610;4.31323160;2023-09-12T01:48:37;26.40;87.60
13600;DHT22;6871;51.34740610;4.31323160;2023-09-12T01:51:07;26.40;87.70
13600;DHT22;6871;51.34740610;4.31323160;2023-09-12T01:53:37;26.40;87.60
13600;DHT22;6871;51.34740610;4.31323160;2023-09-12T01:56:07;26.40;87.70
13600;DHT22;6871;51.34740610;4.31323160;2023-09-12T01:58:36;26.40;87.60
13600;DHT22;6871;51.34740610;4.31323160;2023-09-12T02:01:05;26.40;87.60
13600;DHT22;6871;51.34740610;4.31323160;2023-09-12T02:03:34;26.40;87.60
13600;DHT22;6871;51.34740610;4.31323160;2023-09-12T02:06:04;26.40;87.60
13600;DHT22;6871;51.34740610;4.31323160;2023-09-12T02:08:33;26.40;87.60
13600;DHT22;6871;51.34740610;4.31323160;2023-09-12T02:11:02;26.40;87.60
13600;DHT22;6871;51.34740610;4.31323160;2023-09-12T02:13:31;26.40;87.60
13600;DHT22;6871;51.34740610;4.31323160;2023-09-12T02:16:01;26.40;87.60
13600;DHT22;6871;51.34740610;4.31323160;2023-09-12T02:18:30;26.40;87.60
13600;DHT22;6871;51.34740610;4.31323160;2023-09-12T02:21:00;26.40;87.60
13600;DHT22;6871;51.34740610;4.31323160;2023-09-12T02:23:29;26.40;87.70
13600;DHT22;6871;51.34740610;4.31323160;2023-09-12T02:25:58;26.40;87.60
13600;DHT22;6871;51.34740610;4.31323160;2023-09-12T02:28:27;26.30;87.50
13600;DHT22;6871;51.34740610;4.31323160;2023-09-12T02:30:56;26.40;87.60
13600;DHT22;6871;51.34740610;4.31323160;2023-09-12T02:33:25;26.40;87.60
13600;DHT22;6871;51.34740610;4.31323160;2023-09-12T02:35:54;26.30;87.70
13600;DHT22;6871;51.34740610;4.31323160;2023-09-12T02:38:23;26.30;87.60
13600;DHT22;6871;51.34740610;4.31323160;2023-09-12T02:40:52;26.30;87.60
13600;DHT22;6871;51.34740610;4.31323160;2023-09-12T02:43:22;26.30;87.50
13600;DHT22;6871;51.34740610;4.31323160;2023-09-12T02:45:51;26.30;87.50
13600;DHT22;6871;51.34740610;4.31323160;2023-09-12T02:48:21;26.30;87.60
13600;DHT22;6871;51.34740610;4.31323160;2023-09-12T02:50:50;26.30;87.60
13600;DHT22;6871;51.34740610;4.31323160;2023-09-12T02:53:20;26.30;87.60
13600;DHT22;6871;51.34740610;4.31323160;2023-09-12T02:55:49;26.30;87.60
13600;DHT22;6871;51.34740610;4.31323160;2023-09-12T02:58:19;26.30;87.50
13600;DHT22;6871;51.34740610;4.31323160;2023-09-12T03:00:49;26.30;87.50
13600;DHT22;6871;51.34740610;4.31323160;2023-09-12T03:03:20;26.30;87.60
13600;DHT22;6871;51.34740610;4.31323160;2023-09-12T03:05:57;26.30;87.60
13600;DHT22;6871;51.34740610;4.31323160;2023-09-12T03:08:26;26.30;87.60
13600;DHT22;6871;51.34740610;4.31323160;2023-09-12T03:10:56;26.30;87.60
13600;DHT22;6871;51.34740610;4.31323160;2023-09-12T03:13:26;26.30;87.60
13600;DHT22;6871;51.34740610;4.31323160;2023-09-12T03:15:55;26.30;87.60
13600;DHT22;6871;51.34740610;4.31323160;2023-09-12T03:18:24;26.30;87.60
13600;DHT22;6871;51.34740610;4.31323160;2023-09-12T03:20:53;26.30;87.50
13600;DHT22;6871;51.34740610;4.31323160;2023-09-12T03:23:22;26.30;88.20
13600;DHT22;6871;51.34740610;4.31323160;2023-09-12T03:25:52;26.30;87.60
13600;DHT22;6871;51.34740610;4.31323160;2023-09-12T03:28:21;26.20;87.50
13600;DHT22;6871;51.34740610;4.31323160;2023-09-12T03:30:50;26.20;87.40
13600;DHT22;6871;51.34740610;4.31323160;2023-09-12T03:33:19;26.20;87.40
13600;DHT22;6871;51.34740610;4.31323160;2023-09-12T03:35:49;26.20;86.70
13600;DHT22;6871;51.34740610;4.31323160;2023-09-12T03:38:18;26.20;87.50
13600;DHT22;6871;51.34740610;4.31323160;2023-09-12T03:40:47;26.20;87.50
13600;DHT22;6871;51.34740610;4.31323160;2023-09-12T03:43:16;26.20;87.40
13600;DHT22;6871;51.34740610;4.31323160;2023-09-12T03:45:45;26.20;87.30
13600;DHT22;6871;51.34740610;4.31323160;2023-09-12T03:48:14;26.20;87.30
13600;DHT22;6871;51.34740610;4.31323160;2023-09-12T03:50:45;26.20;87.40
13600;DHT22;6871;51.34740610;4.31323160;2023-09-12T03:53:15;26.20;86.70
13600;DHT22;6871;51.34740610;4.31323160;2023-09-12T03:55:44;26.20;87.40
13600;DHT22;6871;51.34740610;4.31323160;2023-09-12T03:58:13;26.20;87.30
13600;DHT22;6871;51.34740610;4.31323160;2023-09-12T04:00:43;26.20;87.30
13600;DHT22;6871;51.34740610;4.31323160;2023-09-12T04:03:12;26.20;87.30
13600;DHT22;6871;51.34740610;4.31323160;2023-09-12T04:05:41;26.20;87.30
13600;DHT22;6871;51.34740610;4.31323160;2023-09-12T04:08:10;26.20;87.50
13600;DHT22;6871;51.34740610;4.31323160;2023-09-12T04:10:39;26.20;87.40
13600;DHT22;6871;51.34740610;4.31323160;2023-09-12T04:13:09;26.10;87.30
13600;DHT22;6871;51.34740610;4.31323160;2023-09-12T04:15:38;26.20;87.40
13600;DHT22;6871;51.34740610;4.31323160;2023-09-12T04:18:07;26.20;87.30
13600;DHT22;6871;51.34740610;4.31323160;2023-09-12T04:20:36;26.20;87.30
13600;DHT22;6871;51.34740610;4.31323160;2023-09-12T04:23:05;26.20;87.30
13600;DHT22;6871;51.34740610;4.31323160;2023-09-12T04:25:34;26.20;87.40
13600;DHT22;6871;51.34740610;4.31323160;2023-09-12T04:28:05;26.20;87.40
13600;DHT22;6871;51.34740610;4.31323160;2023-09-12T04:30:34;26.10;87.30
13600;DHT22;6871;51.34740610;4.31323160;2023-09-12T04:33:04;26.10;87.30
13600;DHT22;6871;51.34740610;4.31323160;2023-09-12T04:35:34;26.10;87.20
13600;DHT22;6871;51.34740610;4.31323160;2023-09-12T04:38:04;26.10;87.20
13600;DHT22;6871;51.34740610;4.31323160;2023-09-12T04:40:33;26.10;87.30
13600;DHT22;6871;51.34740610;4.31323160;2023-09-12T04:43:02;26.10;87.30
13600;DHT22;6871;51.34740610;4.31323160;2023-09-12T04:45:33;26.10;87.20
13600;DHT22;6871;51.34740610;4.31323160;2023-09-12T04:48:02;26.10;87.30
13600;DHT22;6871;51.34740610;4.31323160;2023-09-12T04:50:31;26.10;87.20
13600;DHT22;6871;51.34740610;4.31323160;2023-09-12T04:53:01;26.10;87.20
13600;DHT22;6871;51.34740610;4.31323160;2023-09-12T04:55:30;26.10;87.30
13600;DHT22;6871;51.34740610;4.31323160;2023-09-12T04:57:59;26.10;87.20
13600;DHT22;6871;51.34740610;4.31323160;2023-09-12T05:00:28;26.10;87.20
13600;DHT22;6871;51.34740610;4.31323160;2023-09-12T05:02:57;26.10;87.20
13600;DHT22;6871;51.34740610;4.31323160;2023-09-12T05:05:26;26.10;87.20
13600;DHT22;6871;51.34740610;4.31323160;2023-09-12T05:07:55;26.10;87.20
13600;DHT22;6871;51.34740610;4.31323160;2023-09-12T05:10:24;26.10;87.30
13600;DHT22;6871;51.34740610;4.31323160;2023-09-12T05:12:53;26.10;87.20
13600;DHT22;6871;51.34740610;4.31323160;2023-09-12T05:15:22;26.00;87.10
13600;DHT22;6871;51.34740610;4.31323160;2023-09-12T05:17:52;26.00;87.20
13600;DHT22;6871;51.34740610;4.31323160;2023-09-12T05:20:21;26.00;87.20
13600;DHT22;6871;51.34740610;4.31323160;2023-09-12T05:22:50;26.00;87.20
13600;DHT22;6871;51.34740610;4.31323160;2023-09-12T05:25:19;26.00;87.20
13600;DHT22;6871;51.34740610;4.31323160;2023-09-12T05:27:48;26.00;87.20
13600;DHT22;6871;51.34740610;4.31323160;2023-09-12T05:30:17;26.00;87.10
13600;DHT22;6871;51.34740610;4.31323160;2023-09-12T05:32:47;26.00;87.10
13600;DHT22;6871;51.34740610;4.31323160;2023-09-12T05:35:16;26.00;87.10
13600;DHT22;6871;51.34740610;4.31323160;2023-09-12T05:37:45;26.00;87.10
13600;DHT22;6871;51.34740610;4.31323160;2023-09-12T05:40:14;26.00;87.20
13600;DHT22;6871;51.34740610;4.31323160;2023-09-12T05:42:44;26.00;87.20
13600;DHT22;6871;51.34740610;4.31323160;2023-09-12T05:45:13;26.00;87.20
13600;DHT22;6871;51.34740610;4.31323160;2023-09-12T05:47:43;26.00;87.00
13600;DHT22;6871;51.34740610;4.31323160;2023-09-12T05:50:12;26.00;87.10
13600;DHT22;6871;51.34740610;4.31323160;2023-09-12T05:52:41;26.00;87.00
13600;DHT22;6871;51.34740610;4.31323160;2023-09-12T05:55:11;26.00;87.10
13600;DHT22;6871;51.34740610;4.31323160;2023-09-12T05:57:40;26.00;87.10
13600;DHT22;6871;51.34740610;4.31323160;2023-09-12T06:00:12;26.00;87.00
13600;DHT22;6871;51.34740610;4.31323160;2023-09-12T06:02:43;26.00;87.10
13600;DHT22;6871;51.34740610;4.31323160;2023-09-12T06:05:12;26.00;87.10
13600;DHT22;6871;51.34740610;4.31323160;2023-09-12T06:07:42;26.00;87.10
13600;DHT22;6871;51.34740610;4.31323160;2023-09-12T06:10:11;26.00;87.10
13600;DHT22;6871;51.34740610;4.31323160;2023-09-12T06:12:42;26.00;87.10
13600;DHT22;6871;51.34740610;4.31323160;2023-09-12T06:15:11;26.00;87.00
13600;DHT22;6871;51.34740610;4.31323160;2023-09-12T06:17:40;26.00;87.00
13600;DHT22;6871;51.34740610;4.31323160;2023-09-12T06:20:11;26.00;87.10
13600;DHT22;6871;51.34740610;4.31323160;2023-09-12T06:22:40;26.00;87.00
13600;DHT22;6871;51.34740610;4.31323160;2023-09-12T06:25:11;26.00;87.10
13600;DHT22;6871;51.34740610;4.31323160;2023-09-12T06:27:40;26.00;87.10
13600;DHT22;6871;51.34740610;4.31323160;2023-09-12T06:30:12;26.00;87.00
13600;DHT22;6871;51.34740610;4.31323160;2023-09-12T06:32:42;25.90;86.90
13600;DHT22;6871;51.34740610;4.31323160;2023-09-12T06:35:11;25.90;87.00
13600;DHT22;6871;51.34740610;4.31323160;2023-09-12T06:37:40;25.90;86.90
13600;DHT22;6871;51.34740610;4.31323160;2023-09-12T06:40:11;25.90;86.90
13600;DHT22;6871;51.34740610;4.31323160;2023-09-12T06:42:40;25.90;86.90
13600;DHT22;6871;51.34740610;4.31323160;2023-09-12T06:45:10;25.90;86.70
13600;DHT22;6871;51.34740610;4.31323160;2023-09-12T06:47:39;25.90;86.80
13600;DHT22;6871;51.34740610;4.31323160;2023-09-12T06:50:10;25.90;86.80
13600;DHT22;6871;51.34740610;4.31323160;2023-09-12T06:52:40;25.90;86.80
13600;DHT22;6871;51.34740610;4.31323160;2023-09-12T06:55:10;25.90;86.80
13600;DHT22;6871;51.34740610;4.31323160;2023-09-12T06:57:39;25.90;86.90
13600;DHT22;6871;51.34740610;4.31323160;2023-09-12T07:00:10;25.90;86.70
13600;DHT22;6871;51.34740610;4.31323160;2023-09-12T07:02:39;25.90;86.90
13600;DHT22;6871;51.34740610;4.31323160;2023-09-12T07:05:10;25.90;86.60
13600;DHT22;6871;51.34740610;4.31323160;2023-09-12T07:07:39;25.90;86.70
13600;DHT22;6871;51.34740610;4.31323160;2023-09-12T07:10:09;25.90;86.70
13600;DHT22;6871;51.34740610;4.31323160;2023-09-12T07:12:39;25.90;86.70
13600;DHT22;6871;51.34740610;4.31323160;2023-09-12T07:15:09;25.90;86.60
13600;DHT22;6871;51.34740610;4.31323160;2023-09-12T07:17:38;25.90;86.60
13600;DHT22;6871;51.34740610;4.31323160;2023-09-12T07:20:09;25.90;86.60
13600;DHT22;6871;51.34740610;4.31323160;2023-09-12T07:22:39;25.90;86.60
13600;DHT22;6871;51.34740610;4.31323160;2023-09-12T07:25:09;25.90;86.70
13600;DHT22;6871;51.34740610;4.31323160;2023-09-12T07:27:39;25.90;86.60
13600;DHT22;6871;51.34740610;4.31323160;2023-09-12T07:30:09;25.90;87.30
13600;DHT22;6871;51.34740610;4.31323160;2023-09-12T07:32:39;25.90;86.60
13600;DHT22;6871;51.34740610;4.31323160;2023-09-12T07:35:09;25.90;86.60
13600;DHT22;6871;51.34740610;4.31323160;2023-09-12T07:37:38;25.90;86.60
13600;DHT22;6871;51.34740610;4.31323160;2023-09-12T07:40:09;25.90;87.20
13600;DHT22;6871;51.34740610;4.31323160;2023-09-12T07:42:39;25.90;86.60
13600;DHT22;6871;51.34740610;4.31323160;2023-09-12T07:45:09;25.90;86.60
13600;DHT22;6871;51.34740610;4.31323160;2023-09-12T07:47:42;25.90;86.60
13600;DHT22;6871;51.34740610;4.31323160;2023-09-12T07:50:11;25.90;86.60
13600;DHT22;6871;51.34740610;4.31323160;2023-09-12T07:52:40;25.90;86.60
13600;DHT22;6871;51.34740610;4.31323160;2023-09-12T07:55:10;25.90;86.60
13600;DHT22;6871;51.34740610;4.31323160;2023-09-12T07:57:39;25.90;86.70
13600;DHT22;6871;51.34740610;4.31323160;2023-09-12T08:00:12;25.90;86.70
13600;DHT22;6871;51.34740610;4.31323160;2023-09-12T08:02:42;25.90;86.70
13600;DHT22;6871;51.34740610;4.31323160;2023-09-12T08:05:11;25.90;86.60
13600;DHT22;6871;51.34740610;4.31323160;2023-09-12T08:07:40;25.90;86.70
13600;DHT22;6871;51.34740610;4.31323160;2023-09-12T08:10:10;25.90;86.70
13600;DHT22;6871;51.34740610;4.31323160;2023-09-12T08:12:40;25.90;86.70
13600;DHT22;6871;51.34740610;4.31323160;2023-09-12T08:15:10;25.90;86.70
13600;DHT22;6871;51.34740610;4.31323160;2023-09-12T08:17:40;25.90;86.70
13600;DHT22;6871;51.34740610;4.31323160;2023-09-12T08:20:11;25.90;86.60
13600;DHT22;6871;51.34740610;4.31323160;2023-09-12T08:22:40;25.90;86.70
13600;DHT22;6871;51.34740610;4.31323160;2023-09-12T08:25:10;25.80;86.70
13600;DHT22;6871;51.34740610;4.31323160;2023-09-12T08:27:40;25.80;86.70
13600;DHT22;6871;51.34740610;4.31323160;2023-09-12T08:30:12;25.80;86.70
13600;DHT22;6871;51.34740610;4.31323160;2023-09-12T08:32:42;25.80;86.70
13600;DHT22;6871;51.34740610;4.31323160;2023-09-12T08:35:12;25.80;86.70
13600;DHT22;6871;51.34740610;4.31323160;2023-09-12T08:37:42;25.80;86.70
13600;DHT22;6871;51.34740610;4.31323160;2023-09-12T08:40:12;25.80;86.70
13600;DHT22;6871;51.34740610;4.31323160;2023-09-12T08:42:43;25.80;86.80
13600;DHT22;6871;51.34740610;4.31323160;2023-09-12T08:45:14;25.90;86.80
13600;DHT22;6871;51.34740610;4.31323160;2023-09-12T08:47:44;25.90;86.90
13600;DHT22;6871;51.34740610;4.31323160;2023-09-12T08:50:14;25.80;86.70
13600;DHT22;6871;51.34740610;4.31323160;2023-09-12T08:52:45;25.90;86.80
13600;DHT22;6871;51.34740610;4.31323160;2023-09-12T08:55:15;25.90;86.70
13600;DHT22;6871;51.34740610;4.31323160;2023-09-12T08:57:45;25.90;86.70
13600;DHT22;6871;51.34740610;4.31323160;2023-09-12T09:00:15;25.90;86.70
13600;DHT22;6871;51.34740610;4.31323160;2023-09-12T09:02:46;25.90;86.60
13600;DHT22;6871;51.34740610;4.31323160;2023-09-12T09:05:16;25.90;86.50
13600;DHT22;6871;51.34740610;4.31323160;2023-09-12T09:07:46;25.90;86.60
13600;DHT22;6871;51.34740610;4.31323160;2023-09-12T09:10:17;25.90;86.60
13600;DHT22;6871;51.34740610;4.31323160;2023-09-12T09:12:46;25.90;86.70
13600;DHT22;6871;51.34740610;4.31323160;2023-09-12T09:15:26;25.90;87.40
13600;DHT22;6871;51.34740610;4.31323160;2023-09-12T09:17:56;25.90;86.30
13600;DHT22;6871;51.34740610;4.31323160;2023-09-12T09:20:28;26.00;86.40
13600;DHT22;6871;51.34740610;4.31323160;2023-09-12T09:22:59;26.00;86.40
13600;DHT22;6871;51.34740610;4.31323160;2023-09-12T09:25:28;26.00;86.40
13600;DHT22;6871;51.34740610;4.31323160;2023-09-12T09:27:58;26.00;86.30
13600;DHT22;6871;51.34740610;4.31323160;2023-09-12T09:30:43;26.00;86.20
13600;DHT22;6871;51.34740610;4.31323160;2023-09-12T09:33:14;26.10;86.10
13600;DHT22;6871;51.34740610;4.31323160;2023-09-12T09:35:45;26.10;86.00
13600;DHT22;6871;51.34740610;4.31323160;2023-09-12T09:38:15;26.10;85.90
13600;DHT22;6871;51.34740610;4.31323160;2023-09-12T09:40:46;26.20;85.90
13600;DHT22;6871;51.34740610;4.31323160;2023-09-12T09:43:20;26.20;85.80
13600;DHT22;6871;51.34740610;4.31323160;2023-09-12T09:45:50;26.20;85.80
13600;DHT22;6871;51.34740610;4.31323160;2023-09-12T09:48:19;26.30;85.80
13600;DHT22;6871;51.34740610;4.31323160;2023-09-12T09:50:49;26.30;85.70
13600;DHT22;6871;51.34740610;4.31323160;2023-09-12T09:53:22;26.40;85.70
13600;DHT22;6871;51.34740610;4.31323160;2023-09-12T09:55:52;26.40;85.70
13600;DHT22;6871;51.34740610;4.31323160;2023-09-12T09:58:23;26.40;85.50
13600;DHT22;6871;51.34740610;4.31323160;2023-09-12T10:00:52;26.40;85.50
13600;DHT22;6871;51.34740610;4.31323160;2023-09-12T10:03:22;26.40;85.50
13600;DHT22;6871;51.34740610;4.31323160;2023-09-12T10:05:51;26.40;85.40
13600;DHT22;6871;51.34740610;4.31323160;2023-09-12T10:08:24;26.50;85.50
13600;DHT22;6871;51.34740610;4.31323160;2023-09-12T10:10:53;26.50;85.50
13600;DHT22;6871;51.34740610;4.31323160;2023-09-12T10:13:24;26.50;85.50
13600;DHT22;6871;51.34740610;4.31323160;2023-09-12T10:15:56;26.50;85.50
13600;DHT22;6871;51.34740610;4.31323160;2023-09-12T10:18:28;26.50;85.60
13600;DHT22;6871;51.34740610;4.31323160;2023-09-12T10:21:03;26.50;85.60
13600;DHT22;6871;51.34740610;4.31323160;2023-09-12T10:23:36;26.50;85.60
13600;DHT22;6871;51.34740610;4.31323160;2023-09-12T10:26:05;26.40;85.60
13600;DHT22;6871;51.34740610;4.31323160;2023-09-12T10:28:34;26.40;86.30
13600;DHT22;6871;51.34740610;4.31323160;2023-09-12T10:31:04;26.40;85.80
13600;DHT22;6871;51.34740610;4.31323160;2023-09-12T10:33:34;26.40;85.80
13600;DHT22;6871;51.34740610;4.31323160;2023-09-12T10:36:04;26.40;85.80
13600;DHT22;6871;51.34740610;4.31323160;2023-09-12T10:38:38;26.40;85.80
13600;DHT22;6871;51.34740610;4.31323160;2023-09-12T10:41:07;26.50;85.90
13600;DHT22;6871;51.34740610;4.31323160;2023-09-12T10:43:38;26.50;85.80
13600;DHT22;6871;51.34740610;4.31323160;2023-09-12T10:46:07;26.50;85.70
13600;DHT22;6871;51.34740610;4.31323160;2023-09-12T10:48:36;26.50;85.70
13600;DHT22;6871;51.34740610;4.31323160;2023-09-12T10:51:08;26.50;85.70
13600;DHT22;6871;51.34740610;4.31323160;2023-09-12T10:53:38;26.60;85.70
13600;DHT22;6871;51.34740610;4.31323160;2023-09-12T10:56:17;26.60;85.70
13600;DHT22;6871;51.34740610;4.31323160;2023-09-12T10:59:16;26.60;85.60
13600;DHT22;6871;51.34740610;4.31323160;2023-09-12T11:01:46;26.70;85.70
13600;DHT22;6871;51.34740610;4.31323160;2023-09-12T11:04:35;26.60;85.70
13600;DHT22;6871;51.34740610;4.31323160;2023-09-12T11:07:43;26.60;85.70
13600;DHT22;6871;51.34740610;4.31323160;2023-09-12T11:10:20;26.60;85.70
13600;DHT22;6871;51.34740610;4.31323160;2023-09-12T11:12:51;26.70;85.80
13600;DHT22;6871;51.34740610;4.31323160;2023-09-12T11:15:21;26.70;85.80
13600;DHT22;6871;51.34740610;4.31323160;2023-09-12T11:18:00;26.70;85.80
13600;DHT22;6871;51.34740610;4.31323160;2023-09-12T11:20:49;26.70;85.80
13600;DHT22;6871;51.34740610;4.31323160;2023-09-12T11:23:18;26.70;85.70
13600;DHT22;6871;51.34740610;4.31323160;2023-09-12T11:25:48;26.80;85.80
13600;DHT22;6871;51.34740610;4.31323160;2023-09-12T11:28:18;26.80;85.70
13600;DHT22;6871;51.34740610;4.31323160;2023-09-12T11:30:58;26.80;85.70
13600;DHT22;6871;51.34740610;4.31323160;2023-09-12T11:33:28;26.80;85.70
13600;DHT22;6871;51.34740610;4.31323160;2023-09-12T11:35:57;26.80;85.70
13600;DHT22;6871;51.34740610;4.31323160;2023-09-12T11:38:29;26.80;86.60
13600;DHT22;6871;51.34740610;4.31323160;2023-09-12T11:40:59;26.90;85.80
13600;DHT22;6871;51.34740610;4.31323160;2023-09-12T11:43:29;26.90;85.70
13600;DHT22;6871;51.34740610;4.31323160;2023-09-12T11:46:00;26.90;85.80
13600;DHT22;6871;51.34740610;4.31323160;2023-09-12T11:48:30;26.90;85.80
13600;DHT22;6871;51.34740610;4.31323160;2023-09-12T11:50:59;26.90;85.80
13600;DHT22;6871;51.34740610;4.31323160;2023-09-12T11:53:29;26.90;85.70
13600;DHT22;6871;51.34740610;4.31323160;2023-09-12T11:56:00;26.90;85.80
13600;DHT22;6871;51.34740610;4.31323160;2023-09-12T11:58:29;26.90;85.80
13600;DHT22;6871;51.34740610;4.31323160;2023-09-12T12:00:59;26.90;85.80
13600;DHT22;6871;51.34740610;4.31323160;2023-09-12T12:03:28;27.00;85.90
13600;DHT22;6871;51.34740610;4.31323160;2023-09-12T12:05:58;26.90;85.90
13600;DHT22;6871;51.34740610;4.31323160;2023-09-12T12:08:27;26.90;86.00
13600;DHT22;6871;51.34740610;4.31323160;2023-09-12T12:10:58;26.90;86.10
13600;DHT22;6871;51.34740610;4.31323160;2023-09-12T12:13:28;26.90;86.20
13600;DHT22;6871;51.34740610;4.31323160;2023-09-12T12:15:57;26.90;86.20
13600;DHT22;6871;51.34740610;4.31323160;2023-09-12T12:18:26;26.90;86.20
13600;DHT22;6871;51.34740610;4.31323160;2023-09-12T12:20:55;26.90;86.30
13600;DHT22;6871;51.34740610;4.31323160;2023-09-12T12:23:25;26.90;86.30
13600;DHT22;6871;51.34740610;4.31323160;2023-09-12T12:25:54;26.90;86.30
13600;DHT22;6871;51.34740610;4.31323160;2023-09-12T12:28:23;26.90;86.30
13600;DHT22;6871;51.34740610;4.31323160;2023-09-12T12:30:54;26.90;86.30
13600;DHT22;6871;51.34740610;4.31323160;2023-09-12T12:33:23;26.90;86.30
13600;DHT22;6871;51.34740610;4.31323160;2023-09-12T12:36:00;26.90;86.30
13600;DHT22;6871;51.34740610;4.31323160;2023-09-12T12:38:32;26.90;86.40
13600;DHT22;6871;51.34740610;4.31323160;2023-09-12T12:41:02;26.90;86.40
13600;DHT22;6871;51.34740610;4.31323160;2023-09-12T12:43:31;26.90;86.50
13600;DHT22;6871;51.34740610;4.31323160;2023-09-12T12:46:00;26.90;86.50
13600;DHT22;6871;51.34740610;4.31323160;2023-09-12T12:48:35;26.90;86.50
13600;DHT22;6871;51.34740610;4.31323160;2023-09-12T12:51:16;26.90;86.60
13600;DHT22;6871;51.34740610;4.31323160;2023-09-12T12:53:47;26.90;86.60
13600;DHT22;6871;51.34740610;4.31323160;2023-09-12T12:56:19;26.90;86.60
13600;DHT22;6871;51.34740610;4.31323160;2023-09-12T12:58:51;26.90;86.60
13600;DHT22;6871;51.34740610;4.31323160;2023-09-12T13:01:22;26.90;86.70
13600;DHT22;6871;51.34740610;4.31323160;2023-09-12T13:03:51;26.90;86.70
13600;DHT22;6871;51.34740610;4.31323160;2023-09-12T13:06:22;26.90;86.90
13600;DHT22;6871;51.34740610;4.31323160;2023-09-12T13:08:53;26.90;86.90
13600;DHT22;6871;51.34740610;4.31323160;2023-09-12T13:11:22;26.90;86.90
13600;DHT22;6871;51.34740610;4.31323160;2023-09-12T13:13:51;26.90;86.90
13600;DHT22;6871;51.34740610;4.31323160;2023-09-12T13:16:20;26.90;86.90
13600;DHT22;6871;51.34740610;4.31323160;2023-09-12T13:18:50;26.90;87.00
13600;DHT22;6871;51.34740610;4.31323160;2023-09-12T13:21:19;26.90;87.00
13600;DHT22;6871;51.34740610;4.31323160;2023-09-12T13:23:48;26.90;87.10
13600;DHT22;6871;51.34740610;4.31323160;2023-09-12T13:26:17;26.90;87.20
13600;DHT22;6871;51.34740610;4.31323160;2023-09-12T13:28:46;26.90;87.10
13600;DHT22;6871;51.34740610;4.31323160;2023-09-12T13:31:15;26.90;87.10
13600;DHT22;6871;51.34740610;4.31323160;2023-09-12T13:33:45;26.90;87.10
13600;DHT22;6871;51.34740610;4.31323160;2023-09-12T13:36:14;26.80;87.10
13600;DHT22;6871;51.34740610;4.31323160;2023-09-12T13:38:43;26.80;87.20
13600;DHT22;6871;51.34740610;4.31323160;2023-09-12T13:41:14;26.80;87.30
13600;DHT22;6871;51.34740610;4.31323160;2023-09-12T13:43:43;26.80;87.30
13600;DHT22;6871;51.34740610;4.31323160;2023-09-12T13:46:12;26.80;87.30
13600;DHT22;6871;51.34740610;4.31323160;2023-09-12T13:48:41;26.80;87.30
13600;DHT22;6871;51.34740610;4.31323160;2023-09-12T13:51:11;26.80;87.40
13600;DHT22;6871;51.34740610;4.31323160;2023-09-12T13:53:40;26.80;87.40